Time;durP1;ratioP1;P1;durP2;ratioP2;P2;SDS_P1;SDS_P2;PMS_P1;PMS_P2;Temp;Humidity;BMP_temperature;BMP_pressure;BME280_temperature;BME280_humidity;BME280_pressure;Samples;Min_cycle;Max_cycle;Signal;HPM_P1;HPM_P2
2021/06/07 00:01:10;;;;;;;;;;;;;;;16.54;51.04;98793.22;4952261;29;19973;-70
2021/06/07 00:03:36;;;;;;;;;;;;;;;16.50;50.90;98796.66;4952586;29;19970;-70
2021/06/07 00:06:02;;;;;;;;;;;;;;;16.48;51.27;98790.63;4955540;28;19918;-70
2021/06/07 00:08:27;;;;;;;;;;;;;;;16.47;51.00;98790.97;4950902;29;19994;-71
2021/06/07 00:10:53;;;;;;;;;;;;;;;16.43;51.18;98790.78;4952436;29;19918;-70
2021/06/07 00:13:18;;;;;;;;;;;;;;;16.41;51.37;98789.50;4949820;29;20772;-70
2021/06/07 00:15:43;;;;;;;;;;;;;;;16.39;51.32;98789.81;4950865;29;19918;-71
2021/06/07 00:18:09;;;;;;;;;;;;;;;16.36;51.54;98790.47;4950809;28;20291;-70
2021/06/07 00:20:36;;;;;;;;;;;;;;;16.32;51.60;98790.31;4949274;28;19925;-69
2021/06/07 00:23:01;;;;;;;;;;;;;;;16.30;51.35;98792.59;4948318;29;20047;-70
2021/06/07 00:25:27;;;;;;;;;;;;;;;16.31;51.36;98790.63;4965930;28;19914;-70
2021/06/07 00:27:52;;;;;;;;;;;;;;;16.31;51.78;98785.91;4953210;29;19965;-69
2021/06/07 00:30:17;;;;;;;;;;;;;;;16.32;51.46;98795.84;4953476;28;20356;-70
2021/06/07 00:32:43;;;;;;;;;;;;;;;16.29;51.52;98793.72;4968551;28;19917;-70
2021/06/07 00:35:09;;;;;;;;;;;;;;;16.27;51.74;98790.47;4960143;28;19918;-70
2021/06/07 00:37:34;;;;;;;;;;;;;;;16.21;51.45;98789.84;4952355;29;19933;-71
2021/06/07 00:39:59;;;;;;;;;;;;;;;16.17;51.86;98786.09;4961264;28;19918;-70
2021/06/07 00:42:24;;;;;;;;;;;;;;;16.16;52.02;98786.41;4953502;29;20377;-71
2021/06/07 00:44:50;;;;;;;;;;;;;;;16.14;51.53;98788.69;4952103;29;19970;-70
2021/06/07 00:47:16;;;;;;;;;;;;;;;16.10;51.69;98788.53;4952970;28;19922;-70
2021/06/07 00:49:41;;;;;;;;;;;;;;;16.08;51.70;98796.34;4953083;29;19929;-70
2021/06/07 00:52:06;;;;;;;;;;;;;;;16.07;52.08;98784.47;4953241;28;19914;-70
2021/06/07 00:54:31;;;;;;;;;;;;;;;16.05;52.08;98786.75;4953271;28;19937;-70
2021/06/07 00:56:57;;;;;;;;;;;;;;;16.03;51.69;98786.25;4953064;29;19919;-70
2021/06/07 00:59:22;;;;;;;;;;;;;;;16.00;52.12;98794.38;4953041;28;19914;-70
2021/06/07 01:01:47;;;;;;;;;;;;;;;15.95;52.02;98797.28;4952850;29;20001;-70
2021/06/07 01:04:13;;;;;;;;;;;;;;;15.92;52.25;98793.25;4951899;29;19919;-71
2021/06/07 01:06:38;;;;;;;;;;;;;;;15.89;51.92;98793.88;4953252;28;19965;-69
2021/06/07 01:09:04;;;;;;;;;;;;;;;15.87;52.24;98793.38;4953383;28;19914;-70
2021/06/07 01:11:31;;;;;;;;;;;;;;;15.86;52.37;98800.88;4953321;28;20365;-70
2021/06/07 01:13:56;;;;;;;;;;;;;;;15.83;52.08;98795.13;4953276;29;19926;-71
2021/06/07 01:16:21;;;;;;;;;;;;;;;15.81;52.13;98791.88;4952878;29;20262;-69
2021/06/07 01:18:47;;;;;;;;;;;;;;;15.74;52.01;98795.94;4953527;28;20436;-71
2021/06/07 01:21:13;;;;;;;;;;;;;;;15.73;52.57;98790.75;4968543;28;20361;-71
2021/06/07 01:23:39;;;;;;;;;;;;;;;15.70;52.53;98797.72;4954133;29;19914;-70
2021/06/07 01:26:06;;;;;;;;;;;;;;;15.65;52.64;98795.13;4953580;28;19945;-70
2021/06/07 01:28:31;;;;;;;;;;;;;;;15.57;52.17;98793.94;4952748;29;19931;-70
2021/06/07 01:30:57;;;;;;;;;;;;;;;15.54;52.83;98793.78;4953390;28;19925;-71
2021/06/07 01:33:23;;;;;;;;;;;;;;;15.53;52.46;98783.88;4954440;28;20385;-70
2021/06/07 01:35:50;;;;;;;;;;;;;;;15.50;52.78;98790.03;4957877;29;20289;-71
2021/06/07 01:38:16;;;;;;;;;;;;;;;15.49;52.97;98786.44;4957307;28;19988;-71
2021/06/07 01:40:46;;;;;;;;;;;;;;;15.47;52.84;98785.97;4956923;28;19922;-70
2021/06/07 01:43:11;;;;;;;;;;;;;;;15.43;52.83;98784.97;4957436;28;20320;-71
2021/06/07 01:45:38;;;;;;;;;;;;;;;15.37;52.99;98784.28;4957836;28;19914;-70
2021/06/07 01:48:04;;;;;;;;;;;;;;;15.32;53.06;98787.19;4972147;28;20301;-71
2021/06/07 01:50:30;;;;;;;;;;;;;;;15.31;53.19;98788.34;4957944;28;19914;-71
2021/06/07 01:52:55;;;;;;;;;;;;;;;15.30;53.30;98789.47;4957395;29;19925;-71
2021/06/07 01:55:30;;;;;;;;;;;;;;;15.27;53.28;98787.38;4957113;29;19970;-70
2021/06/07 01:57:55;;;;;;;;;;;;;;;15.22;53.02;98798.56;4956855;28;20395;-70
2021/06/07 02:00:23;;;;;;;;;;;;;;;15.20;53.00;98789.78;4957409;29;19918;-71
2021/06/07 02:02:49;;;;;;;;;;;;;;;15.18;53.56;98784.56;4957606;28;19920;-70
2021/06/07 02:05:17;;;;;;;;;;;;;;;15.17;53.44;98793.97;4957479;28;20343;-71
2021/06/07 02:07:49;;;;;;;;;;;;;;;15.18;53.55;98788.16;4956717;28;19922;-71
2021/06/07 02:10:14;;;;;;;;;;;;;;;15.18;53.64;98785.38;4957075;28;20392;-70
2021/06/07 02:12:40;;;;;;;;;;;;;;;15.16;53.77;98782.13;4957012;28;19957;-71
2021/06/07 02:15:06;;;;;;;;;;;;;;;15.16;53.45;98779.38;4956838;28;19918;-70
2021/06/07 02:17:32;;;;;;;;;;;;;;;15.15;53.92;98783.25;4956823;28;19973;-70
2021/06/07 02:19:57;;;;;;;;;;;;;;;15.14;53.57;98776.09;4956773;29;19923;-70
2021/06/07 02:22:22;;;;;;;;;;;;;;;15.13;53.88;98780.00;4956474;29;19919;-70
2021/06/07 02:24:47;;;;;;;;;;;;;;;15.11;54.05;98779.50;4956394;29;19922;-70
2021/06/07 02:27:12;;;;;;;;;;;;;;;15.08;53.75;98784.84;4955997;29;19918;-70
2021/06/07 02:29:38;;;;;;;;;;;;;;;15.06;53.81;98784.38;4956861;29;19914;-69
2021/06/07 02:32:03;;;;;;;;;;;;;;;15.02;54.02;98779.47;4956741;29;19918;-69
2021/06/07 02:34:28;;;;;;;;;;;;;;;15.01;54.14;98779.78;4956772;28;20266;-70
2021/06/07 02:36:54;;;;;;;;;;;;;;;14.98;54.16;98778.47;4956372;29;19919;-70
2021/06/07 02:39:22;;;;;;;;;;;;;;;14.95;54.06;98775.50;4956081;28;19925;-69
2021/06/07 02:41:47;;;;;;;;;;;;;;;14.95;54.05;98786.56;4956629;29;20025;-69
2021/06/07 02:44:12;;;;;;;;;;;;;;;14.92;54.17;98776.97;4956534;28;20424;-70
2021/06/07 02:46:38;;;;;;;;;;;;;;;14.90;54.41;98787.53;4955878;28;20013;-70
2021/06/07 02:49:03;;;;;;;;;;;;;;;14.88;54.16;98790.59;4956009;29;19966;-70
2021/06/07 02:51:29;;;;;;;;;;;;;;;14.87;54.26;98788.16;4956680;28;20590;-70
2021/06/07 02:53:54;;;;;;;;;;;;;;;14.82;54.37;98783.59;4956360;28;19993;-69
2021/06/07 02:56:19;;;;;;;;;;;;;;;14.79;54.07;98784.22;4956142;29;20648;-70
2021/06/07 02:58:44;;;;;;;;;;;;;;;14.78;54.54;98782.59;4955857;28;20015;-70
2021/06/07 03:01:11;;;;;;;;;;;;;;;14.74;54.62;98776.06;4956060;29;19925;-70
2021/06/07 03:03:37;;;;;;;;;;;;;;;14.71;54.38;98776.69;4955913;28;20357;-70
2021/06/07 03:06:02;;;;;;;;;;;;;;;14.69;54.36;98784.47;4985949;28;19995;-70
2021/06/07 03:08:29;;;;;;;;;;;;;;;14.67;54.74;98786.72;4955272;28;20285;-70
2021/06/07 03:10:56;;;;;;;;;;;;;;;14.65;54.57;98788.97;4955763;28;20008;-70
2021/06/07 03:13:21;;;;;;;;;;;;;;;14.64;54.87;98790.94;4955876;28;20308;-70
2021/06/07 03:15:46;;;;;;;;;;;;;;;14.63;54.69;98797.59;4955894;28;19914;-70
2021/06/07 03:18:12;;;;;;;;;;;;;;;14.65;54.56;98786.22;4955546;28;19918;-70
2021/06/07 03:20:37;;;;;;;;;;;;;;;14.65;54.90;98787.03;4970074;28;19922;-70
2021/06/07 03:23:07;;;;;;;;;;;;;;;14.68;54.82;98785.59;4955822;28;20001;-70
2021/06/07 03:25:33;;;;;;;;;;;;;;;14.73;54.69;98791.00;4955833;29;19922;-70
2021/06/07 03:27:59;;;;;;;;;;;;;;;14.72;54.83;98781.91;4954514;29;19915;-70
2021/06/07 03:30:25;;;;;;;;;;;;;;;14.70;54.75;98786.91;4955501;29;20257;-70
2021/06/07 03:32:50;;;;;;;;;;;;;;;14.68;55.06;98794.66;4955593;28;19987;-70
2021/06/07 03:35:16;;;;;;;;;;;;;;;14.69;54.92;98790.81;4955383;28;19915;-70
2021/06/07 03:37:42;;;;;;;;;;;;;;;14.70;54.90;98791.63;4954987;28;19922;-70
2021/06/07 03:40:09;;;;;;;;;;;;;;;14.72;55.17;98792.94;4955812;29;19921;-70
2021/06/07 03:42:34;;;;;;;;;;;;;;;14.73;55.12;98800.09;4954855;29;19921;-70
2021/06/07 03:44:59;;;;;;;;;;;;;;;14.77;55.26;98796.69;4955801;29;19914;-69
2021/06/07 03:47:25;;;;;;;;;;;;;;;14.80;55.33;98796.06;4955632;29;19914;-70
2021/06/07 03:49:50;;;;;;;;;;;;;;;14.83;55.21;98801.78;4955526;29;19919;-70
2021/06/07 03:52:15;;;;;;;;;;;;;;;14.87;55.28;98800.03;4955433;29;19918;-70
2021/06/07 03:54:40;;;;;;;;;;;;;;;14.92;55.73;98796.31;4955394;29;19922;-70
2021/06/07 03:57:06;;;;;;;;;;;;;;;14.96;55.51;98808.34;4954540;28;19926;-70
2021/06/07 03:59:31;;;;;;;;;;;;;;;14.95;55.46;98798.44;4955462;29;19926;-70
2021/06/07 04:01:57;;;;;;;;;;;;;;;15.02;55.96;98804.34;4954804;29;19925;-70
2021/06/07 04:04:22;;;;;;;;;;;;;;;15.08;55.37;98806.97;4954987;28;20384;-69
2021/06/07 04:06:47;;;;;;;;;;;;;;;15.11;55.64;98801.59;4954735;29;20004;-69
2021/06/07 04:09:13;;;;;;;;;;;;;;;15.16;55.59;98795.09;4955429;29;19966;-70
2021/06/07 04:11:38;;;;;;;;;;;;;;;15.22;55.58;98798.56;4954816;29;19925;-71
2021/06/07 04:14:03;;;;;;;;;;;;;;;15.27;55.69;98798.44;4954768;29;19918;-71
2021/06/07 04:16:28;;;;;;;;;;;;;;;15.35;55.47;98800.38;4954790;29;20016;-70
2021/06/07 04:18:54;;;;;;;;;;;;;;;15.42;55.96;98800.72;4954522;29;19926;-70
2021/06/07 04:21:19;;;;;;;;;;;;;;;15.53;55.47;98806.78;4955193;29;19914;-71
2021/06/07 04:23:44;;;;;;;;;;;;;;;15.63;55.83;98806.50;4954262;29;19924;-70
2021/06/07 04:26:09;;;;;;;;;;;;;;;15.73;55.63;98807.31;4954758;29;19918;-70
2021/06/07 04:28:35;;;;;;;;;;;;;;;15.82;55.17;98815.63;4953844;29;19918;-71
2021/06/07 04:31:01;;;;;;;;;;;;;;;15.89;55.19;98810.47;4954749;28;19958;-70
2021/06/07 04:33:26;;;;;;;;;;;;;;;15.98;55.16;98805.78;4954703;29;19918;-70
2021/06/07 04:35:51;;;;;;;;;;;;;;;16.06;55.19;98815.22;4954630;29;20420;-70
2021/06/07 04:38:16;;;;;;;;;;;;;;;16.12;55.54;98811.16;4953482;29;19919;-70
2021/06/07 04:40:44;;;;;;;;;;;;;;;16.20;55.22;98810.34;4955070;29;19914;-71
2021/06/07 04:43:10;;;;;;;;;;;;;;;16.29;55.30;98817.84;4955164;29;20388;-70
2021/06/07 04:45:36;;;;;;;;;;;;;;;16.34;55.35;98815.72;4955119;28;19915;-70
2021/06/07 04:48:02;;;;;;;;;;;;;;;16.40;55.31;98810.81;4955077;28;19926;-71
2021/06/07 04:50:29;;;;;;;;;;;;;;;16.51;54.97;98819.59;4954957;28;20394;-70
2021/06/07 04:53:00;;;;;;;;;;;;;;;16.58;54.84;98817.16;4953811;28;19974;-70
2021/06/07 04:55:26;;;;;;;;;;;;;;;16.65;55.01;98813.91;4951419;29;19914;-70
2021/06/07 04:57:51;;;;;;;;;;;;;;;16.72;55.11;98808.66;4954856;29;19957;-70
2021/06/07 05:00:18;;;;;;;;;;;;;;;16.82;54.70;98813.06;4946572;28;19919;-70
2021/06/07 05:02:43;;;;;;;;;;;;;;;16.90;54.43;98814.16;4940680;29;19919;-70
2021/06/07 05:05:09;;;;;;;;;;;;;;;16.96;54.54;98815.66;4941581;28;19921;-70
2021/06/07 05:07:34;;;;;;;;;;;;;;;17.06;54.74;98820.03;4936938;29;19914;-70
2021/06/07 05:09:59;;;;;;;;;;;;;;;17.13;54.28;98823.09;4957454;28;19918;-70
2021/06/07 05:12:24;;;;;;;;;;;;;;;17.19;54.01;98816.22;4957462;29;20312;-70
2021/06/07 05:14:50;;;;;;;;;;;;;;;17.26;54.19;98824.84;4957426;28;19922;-70
2021/06/07 05:17:15;;;;;;;;;;;;;;;17.34;53.98;98830.66;4957653;28;19921;-71
2021/06/07 05:19:40;;;;;;;;;;;;;;;17.42;53.99;98827.06;4956466;29;20594;-70
2021/06/07 05:22:05;;;;;;;;;;;;;;;17.51;54.04;98821.50;4956964;29;20031;-71
2021/06/07 05:24:31;;;;;;;;;;;;;;;17.59;53.77;98826.16;4957288;29;20284;-70
2021/06/07 05:26:56;;;;;;;;;;;;;;;17.67;53.61;98827.28;4956935;28;19930;-71
2021/06/07 05:29:21;;;;;;;;;;;;;;;17.74;53.56;98829.50;4957144;28;19961;-70
2021/06/07 05:31:46;;;;;;;;;;;;;;;17.81;53.50;98833.38;4956954;29;20009;-70
2021/06/07 05:34:11;;;;;;;;;;;;;;;17.89;53.33;98842.81;4957073;29;20005;-70
2021/06/07 05:36:37;;;;;;;;;;;;;;;17.96;53.32;98836.72;4956987;29;20021;-70
2021/06/07 05:39:02;;;;;;;;;;;;;;;18.03;52.95;98848.13;4956738;28;20381;-70
2021/06/07 05:41:28;;;;;;;;;;;;;;;18.09;52.83;98827.38;4957324;29;19919;-70
2021/06/07 05:43:53;;;;;;;;;;;;;;;18.17;52.81;98833.16;4958217;29;20395;-70
2021/06/07 05:46:18;;;;;;;;;;;;;;;18.25;52.85;98837.84;4956800;29;19914;-70
2021/06/07 05:48:43;;;;;;;;;;;;;;;18.31;52.68;98830.94;4957623;29;19918;-69
2021/06/07 05:51:08;;;;;;;;;;;;;;;18.38;52.46;98836.78;4957634;29;20400;-71
2021/06/07 05:53:34;;;;;;;;;;;;;;;18.43;52.42;98836.56;4956650;29;19937;-71
2021/06/07 05:55:59;;;;;;;;;;;;;;;18.51;52.26;98834.84;4957601;29;19918;-70
2021/06/07 05:58:24;;;;;;;;;;;;;;;18.54;51.94;98831.41;4956391;29;20270;-71
2021/06/07 06:00:50;;;;;;;;;;;;;;;18.60;51.85;98837.56;4957257;29;20364;-71
2021/06/07 06:03:16;;;;;;;;;;;;;;;18.66;51.82;98838.97;4972727;28;19921;-70
2021/06/07 06:05:41;;;;;;;;;;;;;;;18.72;51.62;98834.03;4957702;28;20362;-71
2021/06/07 06:08:08;;;;;;;;;;;;;;;18.80;51.58;98830.34;4957722;28;19925;-70
2021/06/07 06:10:33;;;;;;;;;;;;;;;18.88;51.57;98832.22;4957416;28;19918;-71
2021/06/07 06:12:59;;;;;;;;;;;;;;;18.95;51.60;98834.41;4957470;29;19915;-71
2021/06/07 06:15:25;;;;;;;;;;;;;;;19.02;51.46;98829.16;4957704;28;19921;-71
2021/06/07 06:17:51;;;;;;;;;;;;;;;19.11;51.33;98842.16;4956970;28;19961;-71
2021/06/07 06:20:17;;;;;;;;;;;;;;;19.19;51.48;98844.81;4956784;28;19918;-71
2021/06/07 06:22:42;;;;;;;;;;;;;;;19.28;51.61;98841.13;4957601;28;19985;-70
2021/06/07 06:25:09;;;;;;;;;;;;;;;19.37;51.46;98852.16;4955885;29;19921;-71
2021/06/07 06:27:35;;;;;;;;;;;;;;;19.45;51.47;98851.22;4957242;29;20377;-71
2021/06/07 06:30:00;;;;;;;;;;;;;;;19.48;51.49;98840.25;4957401;29;19914;-70
2021/06/07 06:32:26;;;;;;;;;;;;;;;19.57;51.22;98847.66;4957296;29;19997;-70
2021/06/07 06:34:51;;;;;;;;;;;;;;;19.65;51.41;98846.72;4957343;29;19918;-70
2021/06/07 06:37:17;;;;;;;;;;;;;;;19.73;51.45;98853.34;4957011;28;19914;-70
2021/06/07 06:39:42;;;;;;;;;;;;;;;19.80;51.03;98848.00;4956583;29;19925;-72
2021/06/07 06:42:08;;;;;;;;;;;;;;;19.85;51.11;98853.31;4956992;28;20329;-71
2021/06/07 06:44:33;;;;;;;;;;;;;;;19.93;51.12;98859.97;4956532;29;19966;-70
2021/06/07 06:46:58;;;;;;;;;;;;;;;20.02;50.96;98857.06;4946728;28;20428;-70
2021/06/07 06:49:24;;;;;;;;;;;;;;;20.08;50.49;98859.25;4949683;28;19958;-72
2021/06/07 06:51:49;;;;;;;;;;;;;;;20.14;50.57;98856.22;4943123;28;19919;-72
2021/06/07 06:54:14;;;;;;;;;;;;;;;20.21;50.41;98846.09;4935762;29;19915;-71
2021/06/07 06:56:40;;;;;;;;;;;;;;;20.27;50.23;98855.06;4936474;29;19994;-72
2021/06/07 06:59:05;;;;;;;;;;;;;;;20.34;50.35;98858.06;4935450;29;19937;-71
2021/06/07 07:01:30;;;;;;;;;;;;;;;20.45;50.23;98852.78;4935820;29;19922;-73
2021/06/07 07:03:55;;;;;;;;;;;;;;;20.54;50.58;98858.22;4939055;29;19914;-72
2021/06/07 07:06:24;;;;;;;;;;;;;;;20.65;50.51;98864.09;4935878;29;19918;-72
2021/06/07 07:08:50;;;;;;;;;;;;;;;20.73;50.41;98868.69;4935782;29;19919;-72
2021/06/07 07:11:15;;;;;;;;;;;;;;;20.84;50.22;98865.44;4935376;29;19915;-72
2021/06/07 07:13:40;;;;;;;;;;;;;;;20.93;49.75;98868.91;4935617;29;20320;-72
2021/06/07 07:16:05;;;;;;;;;;;;;;;21.00;49.80;98863.50;4935514;29;19988;-72
2021/06/07 07:18:31;;;;;;;;;;;;;;;21.07;49.30;98874.84;4935695;29;19919;-71
2021/06/07 07:20:56;;;;;;;;;;;;;;;21.12;49.25;98871.81;4935303;29;20029;-72
2021/06/07 07:23:21;;;;;;;;;;;;;;;21.20;49.04;98874.78;4953851;29;19922;-72
2021/06/07 07:25:48;;;;;;;;;;;;;;;21.26;48.98;98876.16;4948089;29;19922;-72
2021/06/07 07:28:13;;;;;;;;;;;;;;;21.32;48.33;98882.25;4937782;28;20001;-72
2021/06/07 07:30:38;;;;;;;;;;;;;;;21.37;48.16;98880.03;4950440;28;19997;-71
2021/06/07 07:33:04;;;;;;;;;;;;;;;21.41;48.22;98883.69;4953922;29;19918;-72
2021/06/07 07:35:29;;;;;;;;;;;;;;;21.47;47.87;98877.84;4949607;29;20288;-71
2021/06/07 07:37:55;;;;;;;;;;;;;;;21.54;47.77;98880.84;4940150;29;19919;-71
2021/06/07 07:40:21;;;;;;;;;;;;;;;21.60;47.54;98884.97;4948259;29;19919;-72
2021/06/07 07:42:48;;;;;;;;;;;;;;;21.65;47.30;98876.38;4942130;29;19922;-71
2021/06/07 07:45:15;;;;;;;;;;;;;;;21.72;46.95;98881.31;4936726;29;20031;-72
2021/06/07 07:47:41;;;;;;;;;;;;;;;21.79;46.79;98875.91;4947433;28;20017;-71
2021/06/07 07:50:08;;;;;;;;;;;;;;;21.85;46.26;98882.00;4938610;29;20010;-71
2021/06/07 07:52:33;;;;;;;;;;;;;;;21.91;46.31;98876.97;4945458;29;19969;-72
2021/06/07 07:54:59;;;;;;;;;;;;;;;21.97;46.44;98875.53;4945063;28;19922;-72
2021/06/07 07:57:25;;;;;;;;;;;;;;;22.06;46.48;98872.53;4952881;29;19937;-72
2021/06/07 07:59:50;;;;;;;;;;;;;;;22.18;46.02;98880.00;4940321;28;19926;-70
2021/06/07 08:02:24;;;;;;;;;;;;;;;22.25;45.65;98878.16;5099830;27;20351;-70
2021/06/07 08:04:49;;;;;;;;;;;;;;;22.28;45.03;98871.84;5067853;28;19920;-70
2021/06/07 08:07:14;;;;;;;;;;;;;;;22.36;45.21;98877.59;5067708;28;19921;-71
2021/06/07 08:09:40;;;;;;;;;;;;;;;22.40;44.83;98878.47;5066321;28;19927;-71
2021/06/07 08:12:05;;;;;;;;;;;;;;;22.45;44.64;98873.44;5067592;28;19923;-70
2021/06/07 08:14:30;;;;;;;;;;;;;;;22.50;44.40;98874.31;5065463;28;19916;-70
2021/06/07 08:16:56;;;;;;;;;;;;;;;22.54;44.45;98875.22;5067313;28;20377;-69
2021/06/07 08:19:22;;;;;;;;;;;;;;;22.56;44.11;98879.28;5065900;28;19921;-70
2021/06/07 08:21:47;;;;;;;;;;;;;;;22.58;43.76;98878.91;5067416;28;19924;-71
2021/06/07 08:24:13;;;;;;;;;;;;;;;22.56;43.03;98882.06;5066910;28;19917;-70
2021/06/07 08:26:38;;;;;;;;;;;;;;;22.58;42.37;98876.09;5067093;28;19943;-70
2021/06/07 08:29:03;;;;;;;;;;;;;;;22.59;40.78;98881.34;5066103;28;19970;-70
2021/06/07 08:31:29;;;;;;;;;;;;;;;22.60;41.29;98882.97;5064636;28;20527;-69
2021/06/07 08:33:54;;;;;;;;;;;;;;;22.64;41.15;98883.03;5064411;28;19924;-70
2021/06/07 08:36:19;;;;;;;;;;;;;;;22.66;41.01;98879.84;5066214;28;19921;-68
2021/06/07 08:38:45;;;;;;;;;;;;;;;22.66;39.79;98877.88;5066297;28;19970;-69
2021/06/07 08:41:11;;;;;;;;;;;;;;;22.70;40.09;98886.31;5065541;28;19927;-69
2021/06/07 08:43:36;;;;;;;;;;;;;;;22.73;39.76;98880.00;5066203;28;19917;-69
2021/06/07 08:46:02;;;;;;;;;;;;;;;22.77;39.87;98883.69;5065305;28;19925;-69
2021/06/07 08:48:27;;;;;;;;;;;;;;;22.79;39.41;98881.31;5065844;28;19917;-69
2021/06/07 08:50:52;;;;;;;;;;;;;;;22.81;39.61;98878.19;5066350;28;19927;-69
2021/06/07 08:53:17;;;;;;;;;;;;;;;22.85;39.55;98885.44;5066166;28;20037;-69
2021/06/07 08:55:43;;;;;;;;;;;;;;;22.87;39.12;98887.88;5057413;28;19929;-70
2021/06/07 08:58:09;;;;;;;;;;;;;;;22.87;39.36;98885.88;5060229;28;19917;-70
2021/06/07 09:00:38;;;;;;;;;;;;;;;22.89;38.96;98893.91;5064563;28;19971;-67
2021/06/07 09:03:05;;;;;;;;;;;;;;;22.93;39.63;98880.00;5063931;28;19921;-69
2021/06/07 09:05:30;;;;;;;;;;;;;;;22.98;39.36;98868.53;5064998;28;19956;-70
2021/06/07 09:08:09;;;;;;;;;;;;;;;23.03;39.58;98874.59;5062713;28;20353;-70
2021/06/07 09:10:53;;;;;;;;;;;;;;;23.11;39.49;98875.53;5061936;28;19956;-69
2021/06/07 09:13:21;;;;;;;;;;;;;;;23.17;38.71;98876.88;5051846;28;19974;-68
2021/06/07 09:15:47;;;;;;;;;;;;;;;23.21;38.38;98871.34;5050254;28;20023;-69
2021/06/07 09:18:14;;;;;;;;;;;;;;;23.26;38.71;98875.84;5051307;28;20003;-71
2021/06/07 09:20:41;;;;;;;;;;;;;;;23.30;38.87;98880.31;5051559;28;20457;-70
2021/06/07 09:23:08;;;;;;;;;;;;;;;23.33;38.22;98876.00;5051373;28;19976;-68
2021/06/07 09:25:35;;;;;;;;;;;;;;;23.31;38.35;98883.94;5050971;28;19943;-69
2021/06/07 09:28:14;;;;;;;;;;;;;;;23.30;38.52;98873.94;5048880;28;20007;-69
2021/06/07 09:30:41;;;;;;;;;;;;;;;23.30;38.94;98883.13;5053310;28;19987;-69
2021/06/07 09:33:26;;;;;;;;;;;;;;;23.30;39.05;98880.31;5053178;28;19923;-68
2021/06/07 09:36:06;;;;;;;;;;;;;;;23.28;37.93;98876.28;5052943;28;20369;-69
2021/06/07 09:38:31;;;;;;;;;;;;;;;23.32;38.92;98872.38;5050548;28;20396;-70
2021/06/07 09:41:00;;;;;;;;;;;;;;;23.42;38.85;98873.75;5051837;28;20013;-68
2021/06/07 09:43:26;;;;;;;;;;;;;;;23.45;37.59;98861.00;5053057;28;19921;-69
2021/06/07 09:45:55;;;;;;;;;;;;;;;23.47;37.60;98859.44;5052777;28;19909;-68
2021/06/07 09:48:26;;;;;;;;;;;;;;;23.53;37.60;98862.75;5049909;28;19951;-67
2021/06/07 09:50:55;;;;;;;;;;;;;;;23.60;38.61;98860.06;5051729;28;19916;-69
2021/06/07 09:53:37;;;;;;;;;;;;;;;23.69;38.49;98854.19;5052424;28;19932;-68
2021/06/07 09:56:03;;;;;;;;;;;;;;;23.81;39.06;98855.19;5053191;28;19917;-70
2021/06/07 09:58:32;;;;;;;;;;;;;;;23.89;37.92;98860.50;5051414;28;19924;-69
2021/06/07 10:00:57;;;;;;;;;;;;;;;23.95;36.49;98855.38;5052750;28;19925;-69
2021/06/07 10:03:26;;;;;;;;;;;;;;;23.98;37.07;98857.47;5052302;28;19927;-68
2021/06/07 10:05:53;;;;;;;;;;;;;;;23.99;37.19;98855.50;5052724;28;19974;-69
2021/06/07 10:08:19;;;;;;;;;;;;;;;24.03;37.64;98859.16;5052414;28;19917;-70
2021/06/07 10:10:44;;;;;;;;;;;;;;;24.13;38.15;98854.88;5052876;28;20012;-68
2021/06/07 10:13:11;;;;;;;;;;;;;;;24.21;37.31;98856.59;5047963;28;19921;-69
2021/06/07 10:15:37;;;;;;;;;;;;;;;24.28;37.14;98855.88;5049745;28;20345;-69
2021/06/07 10:18:04;;;;;;;;;;;;;;;24.35;36.94;98853.19;5049525;28;19924;-69
2021/06/07 10:22:58;;;;;;;;;;;;;;;24.52;37.31;98851.81;5050353;28;19925;-68
2021/06/07 10:25:23;;;;;;;;;;;;;;;24.63;37.22;98849.94;5049318;28;20268;-70
2021/06/07 10:27:49;;;;;;;;;;;;;;;24.71;36.83;98850.00;5049027;28;19917;-70
2021/06/07 10:30:16;;;;;;;;;;;;;;;24.78;36.62;98852.94;5049926;28;19932;-67
2021/06/07 10:32:41;;;;;;;;;;;;;;;24.77;36.11;98852.16;5048466;28;19920;-68
2021/06/07 10:35:08;;;;;;;;;;;;;;;24.78;36.53;98850.13;5046501;28;19924;-69
2021/06/07 10:37:34;;;;;;;;;;;;;;;24.76;35.84;98852.50;5048657;28;19905;-69
2021/06/07 10:40:18;;;;;;;;;;;;;;;24.71;36.30;98853.63;5048955;28;20283;-67
2021/06/07 10:43:05;;;;;;;;;;;;;;;24.73;36.60;98856.09;5050771;28;19920;-69
2021/06/07 10:45:32;;;;;;;;;;;;;;;24.73;36.77;98847.66;5051370;28;19916;-68
2021/06/07 10:47:58;;;;;;;;;;;;;;;24.74;36.52;98843.66;5050174;28;19921;-69
2021/06/07 10:50:28;;;;;;;;;;;;;;;24.78;37.29;98839.75;5051460;28;19923;-68
2021/06/07 10:52:56;;;;;;;;;;;;;;;24.80;36.40;98842.97;5050664;28;19927;-69
2021/06/07 10:55:24;;;;;;;;;;;;;;;24.80;35.51;98837.34;5049687;28;19986;-70
2021/06/07 10:57:57;;;;;;;;;;;;;;;24.81;36.42;98838.97;5050852;28;19969;-69
2021/06/07 11:00:24;;;;;;;;;;;;;;;24.80;35.08;98833.72;5051587;28;20381;-68
2021/06/07 11:02:54;;;;;;;;;;;;;;;24.84;35.93;98828.19;5052419;28;19959;-70
2021/06/07 11:05:19;;;;;;;;;;;;;;;24.90;35.05;98823.81;5052231;28;19952;-71
2021/06/07 11:07:58;;;;;;;;;;;;;;;24.94;34.84;98828.28;5051087;28;19971;-70
2021/06/07 11:10:26;;;;;;;;;;;;;;;25.01;35.79;98819.13;5046619;28;19912;-70
2021/06/07 11:12:55;;;;;;;;;;;;;;;25.09;35.61;98826.44;5048516;28;19921;-69
2021/06/07 11:15:22;;;;;;;;;;;;;;;25.13;35.44;98820.84;5050495;28;19956;-69
2021/06/07 11:17:49;;;;;;;;;;;;;;;25.20;36.69;98814.50;5049743;28;19920;-70
2021/06/07 11:20:28;;;;;;;;;;;;;;;25.29;36.72;98817.78;5050998;28;19916;-70
2021/06/07 11:23:07;;;;;;;;;;;;;;;25.36;36.65;98822.66;5047233;28;20703;-68
2021/06/07 11:25:46;;;;;;;;;;;;;;;25.33;35.29;98818.63;5049064;28;20353;-69
2021/06/07 11:28:32;;;;;;;;;;;;;;;25.22;34.95;98817.75;5050334;28;20393;-69
2021/06/07 11:30:58;;;;;;;;;;;;;;;25.16;34.32;98822.88;5024367;28;19975;-69
2021/06/07 11:33:24;;;;;;;;;;;;;;;25.09;33.50;98815.22;5046391;28;19924;-70
2021/06/07 11:35:49;;;;;;;;;;;;;;;25.08;34.11;98813.59;5047933;28;20595;-68
2021/06/07 11:38:35;;;;;;;;;;;;;;;25.07;34.36;98811.16;5048441;28;19938;-69
2021/06/07 11:41:05;;;;;;;;;;;;;;;25.16;34.70;98813.66;5047412;28;19978;-69
2021/06/07 11:43:46;;;;;;;;;;;;;;;25.23;34.03;98816.53;5049041;28;20270;-68
2021/06/07 11:46:29;;;;;;;;;;;;;;;25.29;34.54;98811.38;5048754;28;19913;-68
2021/06/07 11:49:06;;;;;;;;;;;;;;;25.34;34.07;98809.00;5048019;28;20019;-69
2021/06/07 11:51:33;;;;;;;;;;;;;;;25.46;34.23;98812.75;5049950;28;20090;-69
2021/06/07 11:53:58;;;;;;;;;;;;;;;25.52;34.36;98802.78;5048680;28;19952;-68
2021/06/07 11:56:23;;;;;;;;;;;;;;;25.54;32.89;98800.38;5048172;28;19997;-68
2021/06/07 11:58:49;;;;;;;;;;;;;;;25.52;31.29;98795.16;5047368;28;19925;-68
2021/06/07 12:01:14;;;;;;;;;;;;;;;25.54;31.37;98797.56;5047557;28;20399;-67
2021/06/07 12:03:43;;;;;;;;;;;;;;;25.57;32.21;98794.00;5045671;28;19931;-68
2021/06/07 12:06:08;;;;;;;;;;;;;;;25.68;32.81;98808.09;5047411;28;19982;-67
2021/06/07 12:08:33;;;;;;;;;;;;;;;25.77;30.46;98802.97;5046253;28;19921;-69
2021/06/07 12:11:00;;;;;;;;;;;;;;;25.85;30.46;98804.63;5047367;28;20476;-67
2021/06/07 12:13:25;;;;;;;;;;;;;;;25.94;32.21;98795.84;5047486;28;19974;-66
2021/06/07 12:15:53;;;;;;;;;;;;;;;26.00;30.92;98802.72;5047283;28;20292;-67
2021/06/07 12:18:48;;;;;;;;;;;;;;;26.05;31.07;98792.28;5046522;28;19917;-70
2021/06/07 12:21:13;;;;;;;;;;;;;;;26.17;30.23;98797.59;5041929;28;19963;-69
2021/06/07 12:23:43;;;;;;;;;;;;;;;26.29;30.53;98788.00;5046712;28;19925;-70
2021/06/07 12:28:58;;;;;;;;;;;;;;;26.67;31.40;98782.94;5048551;28;20047;-68
2021/06/07 12:31:24;;;;;;;;;;;;;;;26.98;31.56;98774.97;5049148;28;20029;-70
2021/06/07 12:33:49;;;;;;;;;;;;;;;27.16;28.82;98777.81;5048000;28;19928;-69
2021/06/07 12:36:14;;;;;;;;;;;;;;;27.31;28.70;98780.63;5048717;28;19924;-67
2021/06/07 12:38:40;;;;;;;;;;;;;;;27.54;30.18;98785.09;5047082;28;19925;-69
2021/06/07 12:41:05;;;;;;;;;;;;;;;27.85;30.25;98774.16;5048292;28;20372;-69
2021/06/07 12:43:31;;;;;;;;;;;;;;;28.17;29.97;98770.47;5047378;28;20012;-69
2021/06/07 12:45:57;;;;;;;;;;;;;;;28.43;29.36;98766.34;5048704;28;19936;-68
2021/06/07 12:48:29;;;;;;;;;;;;;;;28.78;28.89;98772.22;5047704;28;19925;-70
2021/06/07 12:50:56;;;;;;;;;;;;;;;28.99;27.86;98773.28;5052412;28;19916;-69